createdAt,value
2022-12-17T00:01:09.916Z,-0.20
2022-12-17T00:03:56.837Z,-0.20
2022-12-17T00:06:42.923Z,-0.20
2022-12-17T00:09:28.389Z,-0.20
2022-12-17T00:12:15.827Z,-0.20
2022-12-17T00:15:01.938Z,-0.20
2022-12-17T00:17:48.573Z,-0.20
2022-12-17T00:20:34.425Z,-0.30
2022-12-17T00:23:26.722Z,-0.30
2022-12-17T00:26:13.712Z,-0.30
2022-12-17T00:29:00.815Z,-0.30
2022-12-17T00:31:49.486Z,-0.20
2022-12-17T00:34:36.169Z,-0.30
2022-12-17T00:37:24.614Z,-0.30
2022-12-17T00:40:10.114Z,-0.20
2022-12-17T00:42:57.734Z,-0.20
2022-12-17T00:45:44.386Z,-0.20
2022-12-17T00:48:29.771Z,-0.20
2022-12-17T00:51:15.119Z,-0.30
2022-12-17T00:54:00.726Z,-0.30
2022-12-17T00:56:46.429Z,-0.30
2022-12-17T00:59:31.822Z,-0.30
2022-12-17T01:02:20.213Z,-0.20
2022-12-17T01:05:05.892Z,-0.20
2022-12-17T01:07:52.769Z,-0.30
2022-12-17T01:10:39.635Z,-0.30
2022-12-17T01:13:25.061Z,-0.30
2022-12-17T01:16:10.523Z,-0.30
2022-12-17T01:18:57.992Z,-0.30
2022-12-17T01:21:43.245Z,-0.40
2022-12-17T01:24:28.833Z,-0.40
2022-12-17T01:27:14.224Z,-0.40
2022-12-17T01:29:59.777Z,-0.40
2022-12-17T01:32:45.581Z,-0.40
2022-12-17T01:35:32.679Z,-0.40
2022-12-17T01:38:18.347Z,-0.40
2022-12-17T01:41:09.401Z,-0.40
2022-12-17T01:43:57.248Z,-0.30
2022-12-17T01:46:44.287Z,-0.40
2022-12-17T01:49:31.020Z,-0.40
2022-12-17T01:52:19.437Z,-0.40
2022-12-17T01:55:05.648Z,-0.40
2022-12-17T01:57:52.491Z,-0.50
2022-12-17T02:00:39.403Z,-0.50
2022-12-17T02:03:33.301Z,-0.50
2022-12-17T02:06:27.397Z,-0.40
2022-12-17T02:09:22.851Z,-0.50
2022-12-17T02:12:17.545Z,-0.50
2022-12-17T02:15:07.131Z,-0.50
2022-12-17T02:17:57.489Z,-0.50
2022-12-17T02:20:49.122Z,-0.50
2022-12-17T02:23:53.240Z,-0.60
2022-12-17T02:26:53.733Z,-0.60
2022-12-17T02:29:41.672Z,-0.60
2022-12-17T02:32:29.070Z,-0.60
2022-12-17T02:35:17.069Z,-0.60
2022-12-17T02:38:05.966Z,-0.60
2022-12-17T02:40:53.465Z,-0.60
2022-12-17T02:43:45.537Z,-0.60
2022-12-17T02:46:33.827Z,-0.60
2022-12-17T02:49:19.443Z,-0.60
2022-12-17T02:52:07.234Z,-0.60
2022-12-17T02:54:53.266Z,-0.60
2022-12-17T02:57:43.602Z,-0.70
2022-12-17T03:00:33.177Z,-0.60
2022-12-17T03:03:18.880Z,-0.60
2022-12-17T03:06:04.876Z,-0.60
2022-12-17T03:08:50.598Z,-0.60
2022-12-17T03:11:35.984Z,-0.70
2022-12-17T03:14:21.734Z,-0.70
2022-12-17T03:17:08.811Z,-0.70
2022-12-17T03:19:56.881Z,-0.70
2022-12-17T03:22:42.838Z,-0.70
2022-12-17T03:25:28.118Z,-0.70
2022-12-17T03:28:13.441Z,-0.70
2022-12-17T03:31:00.142Z,-0.70
2022-12-17T03:33:47.104Z,-0.70
2022-12-17T03:36:32.481Z,-0.70
2022-12-17T03:39:17.172Z,-0.70
2022-12-17T03:42:02.750Z,-0.70
2022-12-17T03:44:48.661Z,-0.70
2022-12-17T03:47:34.007Z,-0.70
2022-12-17T03:50:20.980Z,-0.70
2022-12-17T03:53:06.717Z,-0.70
2022-12-17T03:55:52.365Z,-0.70
2022-12-17T03:58:38.275Z,-0.70
2022-12-17T04:01:24.021Z,-0.70
2022-12-17T04:04:06.037Z,-0.60
2022-12-17T04:07:04.388Z,-0.70
2022-12-17T04:09:50.193Z,-0.60
2022-12-17T04:12:35.737Z,-0.60
2022-12-17T04:15:26.799Z,-0.70
2022-12-17T04:18:12.739Z,-0.70
2022-12-17T04:20:58.225Z,-0.60
2022-12-17T04:23:44.956Z,-0.60
2022-12-17T04:26:30.519Z,-0.60
2022-12-17T04:29:21.586Z,-0.60
2022-12-17T04:32:07.194Z,-0.60
2022-12-17T04:34:53.006Z,-0.70
2022-12-17T04:37:38.881Z,-0.70
2022-12-17T04:40:28.060Z,-0.70
2022-12-17T04:43:13.447Z,-0.70
2022-12-17T04:45:59.021Z,-0.70
2022-12-17T04:48:44.815Z,-0.70
2022-12-17T04:51:30.228Z,-0.70
2022-12-17T04:54:16.282Z,-0.70
2022-12-17T04:57:03.354Z,-0.70
2022-12-17T04:59:49.373Z,-0.60
2022-12-17T05:02:40.973Z,-0.70
2022-12-17T05:05:29.255Z,-0.70
2022-12-17T05:08:16.386Z,-0.70
2022-12-17T05:11:02.550Z,-0.70
2022-12-17T05:13:49.765Z,-0.80
2022-12-17T05:16:35.750Z,-0.70
2022-12-17T05:19:22.462Z,-0.70
2022-12-17T05:22:07.928Z,-0.70
2022-12-17T05:24:54.086Z,-0.70
2022-12-17T05:27:40.272Z,-0.70
2022-12-17T05:30:28.386Z,-0.70
2022-12-17T05:33:17.967Z,-0.70
2022-12-17T05:36:03.588Z,-0.70
2022-12-17T05:39:03.959Z,-0.80
2022-12-17T05:41:49.639Z,-0.80
2022-12-17T05:44:47.120Z,-0.80
2022-12-17T05:47:33.719Z,-0.80
2022-12-17T05:50:19.298Z,-0.80
2022-12-17T05:53:04.604Z,-0.80
2022-12-17T05:55:50.457Z,-0.80
2022-12-17T05:58:36.195Z,-0.80
2022-12-17T06:01:24.328Z,-0.80
2022-12-17T06:04:11.468Z,-0.80
2022-12-17T06:06:57.627Z,-0.90
2022-12-17T06:09:42.999Z,-0.80
2022-12-17T06:12:29.681Z,-0.80
2022-12-17T06:15:14.308Z,-0.80
2022-12-17T06:17:59.835Z,-0.80
2022-12-17T06:20:47.577Z,-0.90
2022-12-17T06:23:33.243Z,-0.90
2022-12-17T06:26:27.377Z,-0.90
2022-12-17T06:29:12.812Z,-0.90
2022-12-17T06:31:58.329Z,-0.90
2022-12-17T06:34:43.670Z,-0.90
2022-12-17T06:37:31.146Z,-0.90
2022-12-17T06:40:16.965Z,-0.90
2022-12-17T06:43:11.621Z,-1.00
2022-12-17T06:45:57.625Z,-0.90
2022-12-17T06:48:44.277Z,-0.90
2022-12-17T06:51:29.794Z,-0.90
2022-12-17T06:54:17.640Z,-0.90
2022-12-17T06:57:03.120Z,-0.90
2022-12-17T06:59:49.183Z,-0.90
2022-12-17T07:02:34.789Z,-0.90
2022-12-17T07:05:20.315Z,-0.90
2022-12-17T07:08:05.395Z,-1.00
2022-12-17T07:10:58.371Z,-0.90
2022-12-17T07:13:44.105Z,-1.00
2022-12-17T07:16:30.088Z,-1.00
2022-12-17T07:19:16.979Z,-1.00
2022-12-17T07:22:02.496Z,-0.90
2022-12-17T07:24:48.768Z,-0.90
2022-12-17T07:27:35.705Z,-0.90
2022-12-17T07:30:21.550Z,-1.00
2022-12-17T07:33:15.753Z,-0.90
2022-12-17T07:36:02.170Z,-0.90
2022-12-17T07:38:47.588Z,-0.90
2022-12-17T07:41:33.623Z,-0.90
2022-12-17T07:44:20.896Z,-0.90
2022-12-17T07:47:06.489Z,-0.90
2022-12-17T07:49:52.147Z,-0.90
2022-12-17T07:52:37.759Z,-0.90
2022-12-17T07:55:23.990Z,-0.90
2022-12-17T07:58:16.672Z,-0.90
2022-12-17T08:01:04.140Z,-0.80
2022-12-17T08:03:50.128Z,-0.80
2022-12-17T08:06:35.751Z,-0.80
2022-12-17T08:09:21.356Z,-0.80
2022-12-17T08:12:07.100Z,-0.80
2022-12-17T08:14:52.959Z,-0.80
2022-12-17T08:17:39.764Z,-0.80
2022-12-17T08:20:26.749Z,-0.80
2022-12-17T08:23:18.672Z,-0.80
2022-12-17T08:26:04.058Z,-0.80
2022-12-17T08:28:51.054Z,-0.70
2022-12-17T08:31:37.787Z,-0.60
2022-12-17T08:34:24.684Z,-0.70
2022-12-17T08:37:10.262Z,-0.70
2022-12-17T08:39:55.735Z,-0.90
2022-12-17T08:42:41.218Z,-0.80
2022-12-17T08:45:27.930Z,-0.80
2022-12-17T08:48:21.064Z,-0.80
2022-12-17T08:51:08.149Z,-0.80
2022-12-17T08:53:54.257Z,-0.70
2022-12-17T08:56:40.049Z,-0.70
2022-12-17T08:59:25.456Z,-0.80
2022-12-17T09:02:11.060Z,-0.80
2022-12-17T09:04:56.719Z,-0.70
2022-12-17T09:07:43.644Z,-0.60
2022-12-17T09:10:44.083Z,-0.70
2022-12-17T09:13:29.842Z,-0.60
2022-12-17T09:16:18.342Z,-0.60
2022-12-17T09:19:04.164Z,-0.70
2022-12-17T09:21:50.460Z,-0.70
2022-12-17T09:24:37.702Z,-0.70
2022-12-17T09:27:23.286Z,-0.60
2022-12-17T09:30:08.982Z,-0.50
2022-12-17T09:32:54.412Z,-0.50
2022-12-17T09:35:40.070Z,-0.30
2022-12-17T09:38:25.919Z,-0.20
2022-12-17T09:41:12.936Z,-0.20
2022-12-17T09:44:05.234Z,0.00
2022-12-17T09:46:55.904Z,-0.10
2022-12-17T09:49:44.527Z,0.00
2022-12-17T09:52:39.056Z,0.10
2022-12-17T09:55:38.568Z,0.10
2022-12-17T09:58:36.741Z,0.20
2022-12-17T10:01:23.342Z,0.20
2022-12-17T10:04:08.881Z,0.20
2022-12-17T10:06:54.860Z,0.30
2022-12-17T10:09:45.925Z,0.40
2022-12-17T10:12:33.730Z,0.50
2022-12-17T10:15:20.969Z,0.40
2022-12-17T10:18:07.189Z,0.40
2022-12-17T10:20:58.206Z,0.40
2022-12-17T10:23:45.441Z,0.40
2022-12-17T10:26:36.426Z,0.40
2022-12-17T10:29:23.693Z,0.40
2022-12-17T10:32:10.665Z,0.50
2022-12-17T10:35:03.431Z,0.50
2022-12-17T10:37:52.756Z,0.40
2022-12-17T10:40:43.800Z,0.60
2022-12-17T10:43:43.216Z,0.60
2022-12-17T10:46:29.216Z,0.60
2022-12-17T10:49:30.461Z,0.60
2022-12-17T10:52:25.450Z,0.60
2022-12-17T10:55:17.959Z,0.60
2022-12-17T10:58:05.794Z,0.60
2022-12-17T11:00:55.225Z,0.60
2022-12-17T11:03:51.207Z,0.70
2022-12-17T11:06:46.789Z,0.60
2022-12-17T11:09:41.374Z,0.70
2022-12-17T11:12:30.996Z,0.60
2022-12-17T11:15:26.261Z,0.70
2022-12-17T11:18:12.821Z,0.70
2022-12-17T11:21:07.519Z,0.70
2022-12-17T11:24:04.396Z,0.60
2022-12-17T11:26:54.915Z,0.70
2022-12-17T11:29:41.564Z,0.70
2022-12-17T11:32:52.889Z,0.70
2022-12-17T11:35:59.155Z,0.80
2022-12-17T11:38:58.351Z,0.70
2022-12-17T11:41:55.572Z,0.70
2022-12-17T11:44:56.902Z,0.70
2022-12-17T11:47:54.857Z,0.80
2022-12-17T11:50:47.394Z,0.80
2022-12-17T11:53:45.839Z,0.60
2022-12-17T11:56:49.580Z,0.50
2022-12-17T11:59:50.953Z,0.60
2022-12-17T12:02:55.899Z,0.60
2022-12-17T12:05:56.917Z,0.60
2022-12-17T12:08:46.504Z,0.50
2022-12-17T12:11:43.714Z,0.60
2022-12-17T12:14:41.631Z,0.50
2022-12-17T12:17:40.004Z,0.60
2022-12-17T12:20:36.154Z,0.60
2022-12-17T12:23:33.476Z,0.70
2022-12-17T12:26:26.064Z,0.70
2022-12-17T12:29:20.268Z,0.70
2022-12-17T12:32:12.530Z,0.70
2022-12-17T12:34:58.648Z,0.60
2022-12-17T12:37:44.786Z,0.60
2022-12-17T12:40:42.119Z,0.60
2022-12-17T12:43:36.000Z,0.50
2022-12-17T12:46:30.235Z,0.50
2022-12-17T12:49:22.803Z,0.30
2022-12-17T12:52:10.835Z,0.20
2022-12-17T12:55:10.825Z,0.40
2022-12-17T12:58:00.955Z,0.30
2022-12-17T13:00:55.102Z,0.40
2022-12-17T13:03:50.919Z,0.20
2022-12-17T13:06:41.511Z,0.30
2022-12-17T13:09:44.570Z,0.30
2022-12-17T13:12:24.417Z,0.20
2022-12-17T13:14:57.314Z,0.20
2022-12-17T13:17:33.750Z,0.20
2022-12-17T13:20:21.057Z,0.20
2022-12-17T13:22:55.175Z,0.20
2022-12-17T13:25:24.535Z,0.10
2022-12-17T13:27:52.560Z,0.10
2022-12-17T13:30:33.692Z,0.00
2022-12-17T13:33:23.841Z,-0.10
2022-12-17T13:36:05.804Z,-0.10
2022-12-17T13:38:43.697Z,-0.20
2022-12-17T13:41:14.895Z,-0.20
2022-12-17T13:43:46.657Z,-0.30
2022-12-17T13:46:20.601Z,-0.30
2022-12-17T13:48:57.543Z,-0.30
2022-12-17T13:51:29.559Z,-0.40
2022-12-17T13:54:01.549Z,-0.50
2022-12-17T13:56:31.501Z,-0.50
2022-12-17T13:59:07.981Z,-0.50
2022-12-17T14:01:46.207Z,-0.60
2022-12-17T14:04:22.438Z,-0.50
2022-12-17T14:06:53.119Z,-0.60
2022-12-17T14:09:23.526Z,-0.60
2022-12-17T14:12:09.275Z,-0.60
2022-12-17T14:14:39.200Z,-0.60
2022-12-17T14:17:16.464Z,-0.70
2022-12-17T14:19:44.919Z,-0.80
2022-12-17T14:22:19.837Z,-0.90
2022-12-17T14:24:48.128Z,-1.00
2022-12-17T14:27:25.813Z,-1.00
2022-12-17T14:29:54.393Z,-1.10
2022-12-17T14:32:27.802Z,-1.10
2022-12-17T14:35:00.357Z,-1.20
2022-12-17T14:37:31.920Z,-1.20
2022-12-17T14:40:03.946Z,-1.30
2022-12-17T14:42:36.162Z,-1.30
2022-12-17T14:45:07.819Z,-1.40
2022-12-17T14:47:37.677Z,-1.50
2022-12-17T14:50:25.072Z,-1.60
2022-12-17T14:52:55.665Z,-1.70
2022-12-17T14:55:31.208Z,-1.70
2022-12-17T14:58:24.381Z,-1.80
2022-12-17T15:00:56.326Z,-1.90
2022-12-17T15:03:28.572Z,-1.90
2022-12-17T15:06:00.354Z,-2.00
2022-12-17T15:08:36.202Z,-2.00
2022-12-17T15:11:04.842Z,-2.00
2022-12-17T15:13:33.276Z,-2.10
2022-12-17T15:16:01.264Z,-2.20
2022-12-17T15:18:29.693Z,-2.30
2022-12-17T15:20:58.213Z,-2.40
2022-12-17T15:23:26.699Z,-2.40
2022-12-17T15:25:56.177Z,-2.40
2022-12-17T15:28:24.741Z,-2.50
2022-12-17T15:30:52.896Z,-2.60
2022-12-17T15:33:20.953Z,-2.70
2022-12-17T15:35:49.978Z,-2.90
2022-12-17T15:38:17.968Z,-2.90
2022-12-17T15:40:46.081Z,-3.00
2022-12-17T15:43:15.869Z,-3.10
2022-12-17T15:45:45.665Z,-3.10
2022-12-17T15:48:16.264Z,-3.10
2022-12-17T15:50:45.467Z,-3.20
2022-12-17T15:53:13.902Z,-3.30
2022-12-17T15:55:42.341Z,-3.40
2022-12-17T15:58:11.728Z,-3.40
2022-12-17T16:00:41.117Z,-3.50
2022-12-17T16:03:09.525Z,-3.50
2022-12-17T16:05:37.643Z,-3.50
2022-12-17T16:08:06.267Z,-3.60
2022-12-17T16:10:34.470Z,-3.70
2022-12-17T16:13:02.622Z,-3.70
2022-12-17T16:15:31.288Z,-3.70
2022-12-17T16:18:01.292Z,-3.70
2022-12-17T16:20:29.283Z,-3.80
2022-12-17T16:22:57.300Z,-3.80
2022-12-17T16:25:26.527Z,-3.90
2022-12-17T16:27:54.544Z,-4.00
2022-12-17T16:30:22.718Z,-4.00
2022-12-17T16:32:51.154Z,-4.10
2022-12-17T16:35:21.019Z,-4.10
2022-12-17T16:37:49.559Z,-4.10
2022-12-17T16:40:17.651Z,-4.10
2022-12-17T16:42:45.745Z,-4.20
2022-12-17T16:45:14.249Z,-4.30
2022-12-17T16:47:42.248Z,-4.40
2022-12-17T16:50:10.260Z,-4.40
2022-12-17T16:52:39.704Z,-4.40
2022-12-17T16:55:09.995Z,-4.40
2022-12-17T16:57:39.390Z,-4.40
2022-12-17T17:00:09.029Z,-4.50
2022-12-17T17:02:37.217Z,-4.50
2022-12-17T17:05:06.512Z,-4.50
2022-12-17T17:07:34.598Z,-4.40
2022-12-17T17:10:05.120Z,-4.50
2022-12-17T17:12:33.121Z,-4.70
2022-12-17T17:15:02.234Z,-4.70
2022-12-17T17:17:54.728Z,-4.70
2022-12-17T17:20:19.440Z,-4.80
2022-12-17T17:22:47.608Z,-4.80
2022-12-17T17:25:17.113Z,-4.80
2022-12-17T17:27:46.450Z,-4.80
2022-12-17T17:30:16.085Z,-4.70
2022-12-17T17:32:44.429Z,-4.80
2022-12-17T17:35:12.860Z,-4.80
2022-12-17T17:37:40.929Z,-4.80
2022-12-17T17:40:10.267Z,-4.70
2022-12-17T17:42:39.719Z,-4.70
2022-12-17T17:45:09.424Z,-4.70
2022-12-17T17:47:37.409Z,-4.60
2022-12-17T17:50:06.041Z,-4.60
2022-12-17T17:52:34.248Z,-4.60
2022-12-17T17:55:03.305Z,-4.70
2022-12-17T17:57:32.391Z,-4.60
2022-12-17T18:00:02.754Z,-4.60
2022-12-17T18:02:33.643Z,-4.60
2022-12-17T18:05:02.474Z,-4.50
2022-12-17T18:07:31.289Z,-4.50
2022-12-17T18:09:59.855Z,-4.40
2022-12-17T18:12:45.648Z,-4.40
2022-12-17T18:15:17.450Z,-4.30
2022-12-17T18:17:50.418Z,-4.20
2022-12-17T18:20:18.748Z,-4.20
2022-12-17T18:22:47.431Z,-4.10
2022-12-17T18:25:17.713Z,-4.10
2022-12-17T18:27:46.130Z,-4.00
2022-12-17T18:30:17.359Z,-4.00
2022-12-17T18:32:46.112Z,-4.00
2022-12-17T18:35:14.121Z,-3.90
2022-12-17T18:37:42.626Z,-3.90
2022-12-17T18:40:12.065Z,-3.90
2022-12-17T18:42:58.644Z,-3.80
2022-12-17T18:45:28.661Z,-3.70
2022-12-17T18:47:56.701Z,-3.70
2022-12-17T18:50:24.693Z,-3.70
2022-12-17T18:52:53.725Z,-3.60
2022-12-17T18:55:21.843Z,-3.60
2022-12-17T18:57:50.225Z,-3.60
2022-12-17T19:00:40.919Z,-3.50
2022-12-17T19:03:10.230Z,-3.40
2022-12-17T19:05:45.191Z,-3.40
2022-12-17T19:08:14.547Z,-3.40
2022-12-17T19:10:43.408Z,-3.40
2022-12-17T19:13:12.101Z,-3.30
2022-12-17T19:15:41.898Z,-3.30
2022-12-17T19:18:10.378Z,-3.20
2022-12-17T19:20:38.671Z,-3.20
2022-12-17T19:23:07.332Z,-3.20
2022-12-17T19:25:35.337Z,-3.10
2022-12-17T19:28:03.993Z,-3.10
2022-12-17T19:30:32.338Z,-3.10
2022-12-17T19:33:02.313Z,-3.00
2022-12-17T19:35:30.714Z,-3.00
2022-12-17T19:37:58.768Z,-3.00
2022-12-17T19:40:26.760Z,-3.00
2022-12-17T19:42:56.034Z,-2.90
2022-12-17T19:45:24.803Z,-2.90
2022-12-17T19:47:53.075Z,-2.90
2022-12-17T19:50:22.572Z,-2.90
2022-12-17T19:52:50.613Z,-2.80
2022-12-17T19:55:20.820Z,-2.80
2022-12-17T19:57:49.307Z,-2.80
2022-12-17T20:00:18.371Z,-2.80
2022-12-17T20:02:46.912Z,-2.90
2022-12-17T20:05:16.097Z,-2.90
2022-12-17T20:07:45.642Z,-2.90
2022-12-17T20:10:14.110Z,-2.90
2022-12-17T20:12:42.228Z,-2.90
2022-12-17T20:15:12.241Z,-2.80
2022-12-17T20:17:40.371Z,-2.80
2022-12-17T20:20:12.937Z,-2.80
2022-12-17T20:22:41.107Z,-2.80
2022-12-17T20:25:11.418Z,-2.80
2022-12-17T20:27:39.748Z,-2.80
2022-12-17T20:30:09.339Z,-2.80
2022-12-17T20:32:38.608Z,-2.80
2022-12-17T20:35:07.699Z,-2.80
2022-12-17T20:37:35.693Z,-2.80
2022-12-17T20:40:03.835Z,-2.80
2022-12-17T20:42:33.281Z,-2.80
2022-12-17T20:45:01.312Z,-2.70
2022-12-17T20:47:29.869Z,-2.80
2022-12-17T20:49:57.870Z,-2.80
2022-12-17T20:52:26.384Z,-2.80
2022-12-17T20:54:54.368Z,-2.80
2022-12-17T20:57:22.370Z,-2.80
2022-12-17T20:59:52.104Z,-2.80
2022-12-17T21:02:20.646Z,-2.70
2022-12-17T21:04:49.402Z,-2.80
2022-12-17T21:07:17.446Z,-2.80
2022-12-17T21:09:45.771Z,-2.80
2022-12-17T21:12:13.839Z,-2.80
2022-12-17T21:14:42.568Z,-2.80
2022-12-17T21:17:20.387Z,-2.70
2022-12-17T21:19:48.548Z,-2.70
2022-12-17T21:22:16.636Z,-2.80
2022-12-17T21:24:45.454Z,-2.80
2022-12-17T21:27:15.153Z,-2.80
2022-12-17T21:29:43.474Z,-2.80
2022-12-17T21:32:12.825Z,-2.80
2022-12-17T21:34:41.310Z,-2.80
2022-12-17T21:37:11.112Z,-2.80
2022-12-17T21:39:39.489Z,-2.70
2022-12-17T21:42:26.372Z,-2.70
2022-12-17T21:44:54.665Z,-2.70
2022-12-17T21:47:24.931Z,-2.70
2022-12-17T21:49:53.022Z,-2.70
2022-12-17T21:52:21.322Z,-2.70
2022-12-17T21:54:50.371Z,-2.70
2022-12-17T21:57:18.389Z,-2.80
2022-12-17T21:59:47.175Z,-2.70
2022-12-17T22:02:16.115Z,-2.70
2022-12-17T22:04:47.062Z,-2.70
2022-12-17T22:07:16.837Z,-2.70
2022-12-17T22:10:10.047Z,-2.70
2022-12-17T22:12:56.238Z,-2.60
2022-12-17T22:15:28.413Z,-2.60
2022-12-17T22:18:01.630Z,-2.60
2022-12-17T22:20:31.041Z,-2.60
2022-12-17T22:22:59.632Z,-2.60
2022-12-17T22:25:28.539Z,-2.60
2022-12-17T22:27:57.155Z,-2.50
2022-12-17T22:30:42.952Z,-2.60
2022-12-17T22:33:40.814Z,-2.60
2022-12-17T22:38:51.376Z,-2.70
2022-12-17T22:41:57.827Z,-2.70
2022-12-17T22:44:33.819Z,-2.70
2022-12-17T22:44:53.321Z,-2.70
2022-12-17T22:47:22.299Z,-2.60
2022-12-17T22:49:51.617Z,-2.60
2022-12-17T22:52:22.308Z,-2.60
2022-12-17T22:54:50.719Z,-2.70
2022-12-17T22:57:34.804Z,-2.70
2022-12-17T23:00:09.964Z,-2.70
2022-12-17T23:02:38.031Z,-2.60
2022-12-17T23:05:06.727Z,-2.60
2022-12-17T23:07:36.365Z,-2.50
2022-12-17T23:10:06.341Z,-2.60
2022-12-17T23:12:52.811Z,-2.60
2022-12-17T23:15:25.086Z,-2.60
2022-12-17T23:17:55.680Z,-2.60
2022-12-17T23:20:24.884Z,-2.60
2022-12-17T23:22:54.319Z,-2.60
2022-12-17T23:25:27.628Z,-2.60
2022-12-17T23:27:56.608Z,-2.60
2022-12-17T23:30:24.826Z,-2.50
2022-12-17T23:32:52.871Z,-2.50
2022-12-17T23:35:21.055Z,-2.70
2022-12-17T23:40:39.091Z,-2.60
2022-12-17T23:43:08.344Z,-2.60
2022-12-17T23:45:38.636Z,-2.50
2022-12-17T23:48:08.157Z,-2.50
2022-12-17T23:50:36.328Z,-2.50
2022-12-17T23:53:04.425Z,-2.50
2022-12-17T23:55:32.924Z,-2.50
2022-12-17T23:58:02.447Z,-2.60
